Time;durP1;ratioP1;P1;durP2;ratioP2;P2;SDS_P1;SDS_P2;PMS_P1;PMS_P2;Temp;Humidity;BMP_temperature;BMP_pressure;BME280_temperature;BME280_humidity;BME280_pressure;Samples;Min_cycle;Max_cycle;Signal;HPM_P1;HPM_P2
2023/02/13 00:52:06;;;;;;;0.00;0.00;;;;;;;7.09;80.51;102193.22;6188492;22;20021;-76
2023/02/13 00:55:34;;;;;;;;;;;;;;;;;;;;;
2023/02/13 01:12:10;;;;;;;0.00;0.00;;;;;;;6.78;79.37;102175.44;6046234;23;20016;-77
2023/02/13 01:18:09;;;;;;;0.00;0.00;;;;;;;6.96;80.30;102209.47;6047091;23;20031;-75
2023/02/13 01:21:20;;;;;;;0.00;0.00;;;;;;;6.61;80.19;102146.88;6106658;23;20330;-74
2023/02/13 01:24:34;;;;;;;0.00;0.00;;;;;;;6.98;80.27;102213.66;6045569;23;20010;-76
2023/02/13 01:27:28;;;;;;;0.00;0.00;;;;;;;6.94;80.08;102211.53;6117344;23;20034;-75
2023/02/13 01:29:57;;;;;;;0.00;0.00;;;;;;;6.91;80.33;102192.91;6209262;23;20027;-77
2023/02/13 01:32:48;;;;;;;0.00;0.00;;;;;;;6.70;79.88;102177.47;6223389;23;20000;-76
2023/02/13 01:35:16;;;;;;;0.00;0.00;;;;;;;6.57;80.28;102156.44;6226830;23;20102;-75
2023/02/13 01:37:44;;;;;;;0.00;0.00;;;;;;;6.91;80.14;102203.78;6225945;23;20008;-76
2023/02/13 01:40:14;;;;;;;0.10;0.10;;;;;;;6.80;80.22;102183.41;6229097;23;20064;-77
2023/02/13 01:42:40;;;;;;;0.00;0.00;;;;;;;6.80;80.37;102184.25;6226995;23;20008;-75
2023/02/13 01:45:34;;;;;;;0.00;0.00;;;;;;;6.82;80.46;102198.47;6255754;23;20027;-75
2023/02/13 01:48:06;;;;;;;0.00;0.00;;;;;;;6.64;80.17;102179.09;6225673;23;20000;-75
2023/02/13 01:50:43;;;;;;;0.00;0.00;;;;;;;6.68;80.65;102191.25;6228861;23;20016;-74
2023/02/13 01:53:34;;;;;;;0.00;0.00;;;;;;;6.71;80.31;102195.47;6225141;23;20054;-75
2023/02/13 01:56:27;;;;;;;0.00;0.00;;;;;;;6.70;81.34;102183.75;6225435;23;20004;-75
2023/02/13 01:59:07;;;;;;;0.00;0.00;;;;;;;6.66;80.43;102163.44;6254586;23;20419;-75
2023/02/13 02:01:33;;;;;;;0.00;0.00;;;;;;;6.67;80.19;102167.81;6225707;23;20008;-75
2023/02/13 02:04:21;;;;;;;;;;;;;;;;;;;;;
2023/02/13 02:07:16;;;;;;;0.00;0.00;;;;;;;6.76;80.29;102193.84;6252813;23;20039;-74
2023/02/13 02:09:43;;;;;;;0.00;0.00;;;;;;;6.66;80.38;102182.47;6251825;23;20000;-76
2023/02/13 02:12:48;;;;;;;0.00;0.00;;;;;;;6.76;80.06;102199.28;6254369;23;20008;-75
2023/02/13 02:15:20;;;;;;;;;;;;;;;6.75;81.04;102185.88;6227914;23;20019;-75
2023/02/13 02:17:46;;;;;;;0.00;0.00;;;;;;;6.72;80.98;102175.41;6229725;23;19946;-76
2023/02/13 02:20:41;;;;;;;0.00;0.00;;;;;;;6.90;80.22;102191.22;6226646;23;20004;-75
2023/02/13 02:23:22;;;;;;;0.00;0.00;;;;;;;6.74;80.59;102168.72;6213899;23;20016;-75
2023/02/13 02:26:15;;;;;;;0.00;0.00;;;;;;;6.89;80.36;102181.38;6224917;23;20000;-75
2023/02/13 02:29:14;;;;;;;0.00;0.00;;;;;;;6.67;80.16;102167.81;6225840;23;20046;-76
2023/02/13 02:31:57;;;;;;;0.08;0.08;;;;;;;6.78;79.83;102188.22;6255595;23;19992;-76
2023/02/13 02:35:16;;;;;;;0.00;0.00;;;;;;;6.74;80.25;102190.47;6225696;23;20022;-75
2023/02/13 02:38:35;;;;;;;0.00;0.00;;;;;;;6.70;80.81;102172.88;6187362;23;20363;-74
2023/02/13 02:41:42;;;;;;;0.00;0.00;;;;;;;6.74;80.15;102167.88;6095998;23;20038;-76
2023/02/13 02:44:38;;;;;;;0.00;0.00;;;;;;;6.73;80.29;102149.88;6131458;23;20013;-75
2023/02/13 02:50:28;;;;;;;0.00;0.00;;;;;;;6.84;79.45;102162.94;6133697;23;20012;-75
2023/02/13 02:53:34;;;;;;;;;;;;;;;;;;;;;
2023/02/13 02:56:19;;;;;;;0.00;0.00;;;;;;;6.82;80.12;102149.53;6254133;23;20027;-76
2023/02/13 03:07:31;;;;;;;0.00;0.00;;;;;;;6.78;80.36;102152.84;6255329;23;20073;-76
2023/02/13 03:13:20;;;;;;;0.00;0.00;;;;;;;6.44;79.97;102100.97;6259477;23;20003;-76
2023/02/13 03:22:20;;;;;;;0.00;0.00;;;;;;;6.77;80.22;102115.81;6233937;23;20015;-76
2023/02/13 03:25:43;;;;;;;0.00;0.00;;;;;;;6.56;80.00;102090.38;6230181;23;20008;-75
2023/02/13 03:32:07;;;;;;;0.03;0.03;;;;;;;6.85;79.73;102150.16;6133548;23;20003;-76
2023/02/13 03:40:33;;;;;;;;;;;;;;;;;;;;;
2023/02/13 03:43:18;;;;;;;0.00;0.00;;;;;;;6.65;80.13;102153.59;6258867;23;20036;-76
2023/02/13 03:46:01;;;;;;;0.00;0.00;;;;;;;6.67;80.89;102146.06;6226453;23;20056;-75
2023/02/13 03:51:37;;;;;;;0.00;0.00;;;;;;;6.52;80.09;102121.72;6256942;23;20022;-75
2023/02/13 04:00:16;;;;;;;0.00;0.00;;;;;;;6.52;80.56;102129.03;6255608;23;20130;-75
2023/02/13 04:03:09;;;;;;;0.00;0.00;;;;;;;6.57;80.70;102154.59;6230822;23;20003;-73
2023/02/13 04:05:41;;;;;;;0.00;0.00;;;;;;;6.53;80.55;102147.03;6227239;23;20003;-75
2023/02/13 04:08:07;;;;;;;0.00;0.00;;;;;;;6.52;81.13;102139.91;6228562;23;20051;-75
2023/02/13 04:10:36;;;;;;;0.00;0.00;;;;;;;6.62;81.50;102159.44;6201490;23;20008;-75
2023/02/13 04:13:22;;;;;;;0.00;0.00;;;;;;;6.44;81.16;102125.41;6253172;23;20003;-75
2023/02/13 04:16:01;;;;;;;0.00;0.00;;;;;;;6.53;81.35;102130.72;6226535;23;20000;-75
2023/02/13 04:18:32;;;;;;;0.00;0.00;;;;;;;6.53;81.00;102128.00;6226788;23;20034;-76
2023/02/13 04:21:03;;;;;;;0.08;0.08;;;;;;;6.62;80.97;102148.56;6223180;23;20024;-75
2023/02/13 04:23:29;;;;;;;0.00;0.00;;;;;;;6.62;81.26;102143.13;6228896;23;20004;-75
2023/02/13 04:25:58;;;;;;;0.00;0.00;;;;;;;6.53;80.78;102128.84;6200342;23;20019;-75
2023/02/13 04:28:28;;;;;;;0.00;0.00;;;;;;;6.69;81.21;102154.88;6229314;23;20031;-76
2023/02/13 04:31:04;;;;;;;0.00;0.00;;;;;;;6.74;81.22;102149.69;6227458;23;20003;-75
2023/02/13 04:33:33;;;;;;;0.00;0.00;;;;;;;6.60;81.05;102112.56;6204155;23;20034;-76
2023/02/13 04:39:58;;;;;;;;;;;;;;;;;;;;;
2023/02/13 04:43:00;;;;;;;0.00;0.00;;;;;;;6.65;80.61;102115.53;6233250;23;20038;-76
2023/02/13 04:45:47;;;;;;;0.00;0.00;;;;;;;6.66;80.83;102119.09;6231066;23;20011;-76
2023/02/13 04:48:24;;;;;;;0.00;0.00;;;;;;;6.88;81.43;102141.59;6228128;23;20609;-74
2023/02/13 04:51:07;;;;;;;0.00;0.00;;;;;;;6.93;81.16;102150.03;6230967;23;20000;-75
2023/02/13 04:54:10;;;;;;;0.00;0.00;;;;;;;7.01;80.67;102147.16;6204121;23;20038;-76
2023/02/13 04:57:03;;;;;;;;;;;;;;;;;;;;;
2023/02/13 04:59:35;;;;;;;0.00;0.00;;;;;;;6.97;80.92;102146.69;6232918;23;20054;-75
2023/02/13 05:02:19;;;;;;;;;;;;;;;;;;;;;
2023/02/13 05:04:55;;;;;;;0.00;0.00;;;;;;;6.97;80.94;102141.25;6232016;23;20031;-75
2023/02/13 05:07:25;;;;;;;0.00;0.00;;;;;;;6.77;80.66;102118.53;6202063;23;20008;-75
2023/02/13 05:10:21;;;;;;;0.00;0.00;;;;;;;6.72;80.94;102127.28;6228978;23;20034;-76
2023/02/13 05:16:35;;;;;;;0.00;0.00;;;;;;;6.76;81.02;102123.16;6165230;23;20015;-76
2023/02/13 05:19:22;;;;;;;0.00;0.00;;;;;;;6.64;81.50;102095.69;6216303;23;20004;-77
2023/02/13 05:24:44;;;;;;;0.00;0.00;;;;;;;6.67;80.67;102086.25;6256157;23;20081;-73
2023/02/13 05:27:47;;;;;;;;;;;;;;;;;;;;;
2023/02/13 05:37:03;;;;;;;0.00;0.00;;;;;;;6.96;81.00;102130.56;6255715;23;20039;-75
2023/02/13 05:39:31;;;;;;;0.00;0.00;;;;;;;6.74;81.22;102099.91;6225095;23;20007;-74
2023/02/13 05:42:21;;;;;;;;;;;;;;;;;;;;;
2023/02/13 05:44:50;;;;;;;0.00;0.00;;;;;;;6.85;81.01;102120.25;6252444;23;20035;-76
2023/02/13 05:47:18;;;;;;;0.00;0.00;;;;;;;6.73;80.99;102107.22;6229311;23;20008;-75
2023/02/13 05:56:11;;;;;;;0.00;0.00;;;;;;;6.85;81.25;102132.00;6068717;23;19958;-75
2023/02/13 05:58:50;;;;;;;0.00;0.00;;;;;;;6.54;80.93;102083.47;6159472;23;20037;-76
2023/02/13 06:01:45;;;;;;;;;;;;;;;;;;;;;
2023/02/13 06:04:42;;;;;;;;;;;;;;;;;;;;;
2023/02/13 06:08:11;;;;;;;;;;;;;;;;;;;;;
2023/02/13 07:59:57;;;;;;;0.10;0.10;;;;;;;6.72;83.18;102121.84;6192684;23;20028;-78
2023/02/13 08:57:25;;;;;;;0.00;0.00;;;;;;;7.60;79.89;102126.69;6209383;22;20032;-79
2023/02/13 09:03:13;;;;;;;0.00;0.00;;;;;;;7.71;79.53;102119.81;6225276;22;20383;-80
2023/02/13 09:05:42;;;;;;;0.00;0.00;;;;;;;7.75;79.37;102131.97;6219144;23;20000;-79
2023/02/13 09:09:02;;;;;;;;;;;;;;;;;;;;;
2023/02/13 09:11:28;;;;;;;0.00;0.00;;;;;;;7.94;79.10;102151.28;6138290;23;20025;-76
2023/02/13 09:25:02;;;;;;;;;;;;;;;;;;;;;
2023/02/13 09:28:11;;;;;;;;;;;;;;;;;;;;;
2023/02/13 09:31:05;;;;;;;0.00;0.00;;;;;;;8.21;77.02;102114.84;6110767;23;20035;-79
2023/02/13 09:33:31;;;;;;;0.00;0.00;;;;;;;8.13;76.84;102106.91;6103749;23;20064;-77
2023/02/13 09:36:56;;;;;;;;;;;;;;;;;;;;;
2023/02/13 09:39:25;;;;;;;0.03;0.03;;;;;;;8.13;77.02;102101.47;6217020;22;20022;-77
2023/02/13 09:42:24;;;;;;;;;;;;;;;;;;;;;
2023/02/13 09:45:00;;;;;;;0.00;0.00;;;;;;;8.10;76.42;102134.53;6191391;22;20032;-78
2023/02/13 09:47:51;;;;;;;0.00;0.00;;;;;;;7.97;77.56;102121.75;6250004;22;19996;-77
2023/02/13 09:50:38;;;;;;;;;;;;;;;;;;;;;
2023/02/13 09:53:27;;;;;;;0.00;0.00;;;;;;;8.09;76.70;102107.50;6251606;23;20071;-80
2023/02/13 09:56:26;;;;;;;;;;;;;;;;;;;;;
2023/02/13 10:05:14;;;;;;;;;;;;;;;;;;;;;
2023/02/13 10:08:14;;;;;;;0.00;0.00;;;;;;;8.17;76.70;102146.28;6256397;22;20046;-80
2023/02/13 10:11:10;;;;;;;0.00;0.00;;;;;;;8.17;77.33;102140.84;6228384;23;20055;-79
2023/02/13 10:13:57;;;;;;;0.00;0.00;;;;;;;8.43;76.67;102139.19;6229043;23;20012;-82
2023/02/13 10:16:55;;;;;;;0.00;0.00;;;;;;;8.54;76.71;102130.41;6229119;23;19996;-80
2023/02/13 10:20:00;;;;;;;0.00;0.00;;;;;;;8.83;75.67;102136.44;6230463;23;20167;-79
2023/02/13 10:22:56;;;;;;;;;;;;;;;8.94;75.17;102134.16;6230801;22;20068;-81
2023/02/13 10:25:38;;;;;;;;;;;;;;;;;;;;;
2023/02/13 10:28:32;;;;;;;0.00;0.00;;;;;;;9.07;74.03;102090.44;6271150;22;20011;-81
2023/02/13 10:34:28;;;;;;;0.00;0.00;;;;;;;9.50;72.50;102136.25;6226651;22;20028;-82
2023/02/13 10:37:56;;;;;;;;;;;;;;;;;;;;;
2023/02/13 10:41:00;;;;;;;0.00;0.00;;;;;;;9.81;70.92;102120.13;6136529;23;20029;-82
2023/02/13 10:44:10;;;;;;;0.00;0.00;;;;;;;10.51;71.28;102125.50;6087288;23;20071;-81
2023/02/13 10:47:24;;;;;;;;;;;;;;;;;;;;;
2023/02/13 10:50:46;;;;;;;;;;;;;;;;;;;;;
2023/02/13 11:03:56;;;;;;;;;;;;;;;;;;;;;
2023/02/13 11:07:00;;;;;;;0.00;0.00;;;;;;;12.25;62.66;102139.88;5972747;24;20032;-79
2023/02/13 11:09:57;;;;;;;0.00;0.00;;;;;;;13.05;61.76;102132.97;5990833;23;20015;-80
2023/02/13 11:12:34;;;;;;;0.00;0.00;;;;;;;12.75;60.38;102136.69;6097015;23;20010;-79
2023/02/13 11:15:07;;;;;;;0.00;0.00;;;;;;;12.74;60.90;102124.03;6166253;23;20005;-78
2023/02/13 11:17:40;;;;;;;0.00;0.00;;;;;;;13.32;60.06;102121.44;6194454;23;20013;-78
2023/02/13 11:20:54;;;;;;;;;;;;;;;;;;;;;
2023/02/13 11:23:22;;;;;;;0.00;0.00;;;;;;;17.62;51.62;102139.03;6224382;23;20051;-78
2023/02/13 11:26:10;;;;;;;0.00;0.00;;;;;;;20.51;45.61;102094.63;6194123;23;20020;-77
2023/02/13 11:29:19;;;;;;;0.00;0.00;;;;;;;21.64;39.24;102096.09;6196489;23;20020;-80
2023/02/13 11:32:03;;;;;;;0.03;0.03;;;;;;;24.88;33.63;102107.97;6222945;23;20012;-78
2023/02/13 11:34:32;;;;;;;0.00;0.00;;;;;;;26.94;31.67;102129.41;6193982;23;20313;-78
2023/02/13 11:37:20;;;;;;;0.00;0.00;;;;;;;25.49;33.04;102119.38;6196530;23;20065;-79
2023/02/13 11:39:57;;;;;;;0.00;0.00;;;;;;;22.86;33.91;102113.00;6194499;23;20013;-78
2023/02/13 11:42:38;;;;;;;0.00;0.00;;;;;;;22.14;37.50;102110.31;6196090;23;20363;-78
2023/02/13 11:45:25;;;;;;;0.00;0.00;;;;;;;27.42;30.91;102114.16;6194400;23;20005;-78
2023/02/13 11:47:54;;;;;;;0.00;0.00;;;;;;;29.48;27.55;102104.47;6220667;23;20004;-78
2023/02/13 12:00:43;;;;;;;0.00;0.00;;;;;;;36.34;18.81;102059.19;6131476;23;20010;-76
2023/02/13 12:03:23;;;;;;;0.00;0.00;;;;;;;37.82;18.66;102063.75;6186084;23;19998;-77
2023/02/13 12:06:21;;;;;;;0.00;0.00;;;;;;;39.88;17.32;102060.53;6196926;23;20415;-77
2023/02/13 12:08:52;;;;;;;0.00;0.00;;;;;;;40.73;16.62;102042.38;6144624;23;20016;-80
2023/02/13 12:11:37;;;;;;;0.00;0.00;;;;;;;38.99;16.32;102037.53;6195977;23;20011;-78
2023/02/13 12:14:15;;;;;;;0.00;0.00;;;;;;;38.94;15.52;102023.69;6197164;23;20000;-78
2023/02/13 12:17:18;;;;;;;;;;;;;;;;;;;;;
2023/02/13 12:27:43;;;;;;;0.00;0.00;;;;;;;40.12;14.04;102044.22;6097689;23;20041;-77
2023/02/13 12:30:30;;;;;;;0.00;0.00;;;;;;;38.58;14.85;102024.00;6145632;23;20305;-76
2023/02/13 12:33:21;;;;;;;0.00;0.00;;;;;;;37.06;15.76;102023.31;6188856;23;20071;-81
2023/02/13 12:35:50;;;;;;;0.00;0.00;;;;;;;35.75;17.07;102015.97;6191453;23;20012;-80
2023/02/13 12:38:33;;;;;;;0.00;0.00;;;;;;;37.47;16.36;102019.91;6190728;23;20032;-79
2023/02/13 12:41:20;;;;;;;0.00;0.00;;;;;;;39.30;14.13;102020.41;6192871;23;20016;-80
2023/02/13 12:44:10;;;;;;;0.00;0.00;;;;;;;39.91;14.50;102015.88;6192898;23;20065;-80
2023/02/13 12:46:43;;;;;;;0.00;0.00;;;;;;;40.12;13.33;102018.44;6193496;23;20009;-80
2023/02/13 12:49:44;;;;;;;0.00;0.00;;;;;;;38.49;14.58;102018.00;6197394;23;20039;-79
2023/02/13 12:52:35;;;;;;;0.00;0.00;;;;;;;38.06;15.02;102005.69;6193666;23;20009;-83
2023/02/13 12:55:01;;;;;;;0.00;0.00;;;;;;;38.94;14.02;102007.31;6192245;23;20009;-79
2023/02/13 12:58:03;;;;;;;;;;;;;;;;;;;;;
2023/02/13 13:18:39;;;;;;;;;;;;;;;;;;;;;
2023/02/13 13:21:12;;;;;;;0.00;0.00;;;;;;;41.36;13.94;101974.75;5988360;23;20451;-80
2023/02/13 13:24:32;;;;;;;0.00;0.00;;;;;;;40.88;13.61;101973.28;5989633;23;20008;-78
2023/02/13 13:27:15;;;;;;;;;;;;;;;;;;;;;
2023/02/13 13:36:04;;;;;;;0.00;0.00;;;;;;;39.44;13.60;101942.16;6146963;23;20108;-79
2023/02/13 13:46:52;;;;;;;;;;;;;;;;;;;;;
2023/02/13 13:49:53;;;;;;;0.00;0.00;;;;;;;39.76;13.56;101921.66;6222032;23;20019;-78
2023/02/13 13:52:42;;;;;;;0.00;0.00;;;;;;;39.40;13.56;101921.34;6197480;23;19992;-80
2023/02/13 13:56:02;;;;;;;;;;;;;;;;;;;;;
2023/02/13 13:58:56;;;;;;;;;;;;;;;;;;;;;
2023/02/13 14:05:09;;;;;;;0.00;0.00;;;;;;;36.68;15.45;101913.47;6199399;23;20816;-79
2023/02/13 14:08:30;;;;;;;;;;;;;;;;;;;;;
2023/02/13 14:11:19;;;;;;;0.00;0.00;;;;;;;38.34;14.70;101901.00;6219595;23;20443;-80
2023/02/13 15:27:17;;;;;;;;;;;;;;;;;;;;;
2023/02/13 15:33:57;;;;;;;;;;;;;;;;;;;;;
2023/02/13 15:44:40;;;;;;;;;;;;;;;;;;;;;
2023/02/13 15:47:42;;;;;;;0.00;0.00;;;;;;;29.59;22.21;101835.09;5895989;24;20017;-80
2023/02/13 15:50:34;;;;;;;0.00;0.00;;;;;;;28.97;22.85;101818.53;5949945;23;20007;-77
2023/02/13 15:53:13;;;;;;;0.00;0.00;;;;;;;28.82;22.38;101827.72;6074016;23;20006;-77
2023/02/13 15:55:39;;;;;;;0.00;0.00;;;;;;;28.09;22.90;101807.00;6048694;23;20010;-78
2023/02/13 15:58:11;;;;;;;0.00;0.00;;;;;;;27.71;23.76;101819.41;6169602;23;20013;-77
2023/02/13 16:00:41;;;;;;;0.00;0.00;;;;;;;26.88;24.20;101817.28;6190532;23;20048;-78
2023/02/13 16:03:15;;;;;;;0.00;0.00;;;;;;;26.19;25.13;101825.03;6195120;23;20120;-78
2023/02/13 16:05:43;;;;;;;0.00;0.00;;;;;;;25.63;25.64;101827.09;6191745;23;19996;-77
2023/02/13 16:08:34;;;;;;;0.00;0.00;;;;;;;24.48;27.32;101820.78;6221919;23;20749;-78
2023/02/13 16:11:15;;;;;;;0.00;0.00;;;;;;;24.19;27.10;101821.38;6190592;23;20020;-77
2023/02/13 16:14:06;;;;;;;0.00;0.00;;;;;;;23.04;28.50;101807.97;6191573;23;20017;-77
2023/02/13 16:17:05;;;;;;;0.00;0.00;;;;;;;20.03;32.28;101810.19;6192796;23;20320;-78
2023/02/13 16:19:49;;;;;;;0.00;0.00;;;;;;;17.98;35.89;101818.09;6170159;23;20001;-78
2023/02/13 16:22:33;;;;;;;0.00;0.00;;;;;;;16.44;38.81;101829.97;6191870;23;20005;-79
2023/02/13 16:25:15;;;;;;;0.00;0.00;;;;;;;15.43;40.57;101831.91;6189772;23;20454;-76
2023/02/13 16:27:43;;;;;;;0.00;0.00;;;;;;;14.66;41.89;101826.56;6184182;23;20700;-77
2023/02/13 16:30:28;;;;;;;0.00;0.00;;;;;;;13.91;44.52;101824.22;6178624;23;20357;-78
2023/02/13 16:33:16;;;;;;;0.00;0.00;;;;;;;13.32;46.99;101835.72;6190276;23;20015;-77
2023/02/13 16:35:49;;;;;;;0.00;0.00;;;;;;;12.83;48.09;101843.66;6191141;23;19989;-77
2023/02/13 16:38:34;;;;;;;0.00;0.00;;;;;;;12.25;48.79;101824.47;6190854;23;20444;-80
2023/02/13 16:41:29;;;;;;;0.00;0.00;;;;;;;11.85;52.25;101830.69;6186381;23;20005;-76
2023/02/13 16:44:19;;;;;;;0.00;0.00;;;;;;;11.52;52.00;101829.38;6184559;23;20029;-81
2023/02/13 16:46:53;;;;;;;0.00;0.00;;;;;;;11.27;53.18;101846.91;6191655;23;20088;-78
2023/02/13 16:49:22;;;;;;;0.00;0.00;;;;;;;10.91;53.91;101842.41;6194418;23;20005;-81
2023/02/13 16:51:57;;;;;;;0.00;0.00;;;;;;;10.58;53.63;101841.81;6197362;23;20035;-78
2023/02/13 16:54:32;;;;;;;0.00;0.00;;;;;;;10.35;55.86;101849.91;6188921;23;20005;-77
2023/02/13 16:57:16;;;;;;;0.00;0.00;;;;;;;10.00;56.28;101851.31;6190730;23;20009;-76
2023/02/13 16:59:55;;;;;;;0.00;0.00;;;;;;;9.82;56.70;101868.53;6186913;23;20906;-77
2023/02/13 17:02:34;;;;;;;0.00;0.00;;;;;;;9.59;58.17;101877.38;6184579;23;20013;-76
2023/02/13 17:05:06;;;;;;;0.00;0.00;;;;;;;9.37;59.07;101874.22;6185608;23;20013;-77
2023/02/13 17:07:40;;;;;;;0.00;0.00;;;;;;;9.08;59.83;101862.88;6180158;23;20040;-78
2023/02/13 17:10:20;;;;;;;0.00;0.00;;;;;;;8.89;60.88;101870.13;6194804;23;20078;-78
2023/02/13 17:13:10;;;;;;;0.00;0.00;;;;;;;8.66;64.51;101877.00;6184676;23;20011;-78
2023/02/13 17:15:44;;;;;;;0.00;0.00;;;;;;;8.32;67.07;101850.88;6189500;23;20087;-78
2023/02/13 17:22:04;;;;;;;0.00;0.00;;;;;;;7.67;68.08;101857.16;6124591;23;20040;-80
2023/02/13 17:25:24;;;;;;;;;;;;;;;;;;;;;
2023/02/13 17:31:18;;;;;;;0.00;0.00;;;;;;;7.12;73.54;101852.75;6037482;23;20038;-79
2023/02/13 17:33:44;;;;;;;0.00;0.00;;;;;;;7.01;73.93;101869.72;6191964;23;20710;-77
2023/02/13 17:40:24;;;;;;;0.00;0.00;;;;;;;6.49;75.67;101849.50;5997187;23;20053;-79
2023/02/13 17:49:39;;;;;;;0.00;0.00;;;;;;;6.22;77.61;101876.53;6083427;23;20006;-79
2023/02/13 17:52:15;;;;;;;0.00;0.00;;;;;;;6.26;79.18;101894.13;6194000;23;19996;-79
2023/02/13 17:54:43;;;;;;;0.10;0.10;;;;;;;6.17;78.46;101896.16;6192989;23;20080;-80
2023/02/13 17:57:25;;;;;;;;;;;;;;;;;;;;;
2023/02/13 18:00:11;;;;;;;0.10;0.10;;;;;;;6.08;80.67;101909.06;6221501;23;20043;-79
2023/02/13 18:02:59;;;;;;;0.00;0.00;;;;;;;5.86;80.02;101869.44;6191289;23;20019;-80
2023/02/13 18:05:24;;;;;;;0.00;0.00;;;;;;;5.83;80.88;101873.38;6193943;23;20071;-82
2023/02/13 18:07:50;;;;;;;0.00;0.00;;;;;;;5.87;81.72;101895.53;6219722;23;19989;-79
2023/02/13 18:10:23;;;;;;;0.00;0.00;;;;;;;5.94;81.86;101912.69;6194241;23;20032;-80
2023/02/13 18:13:03;;;;;;;0.00;0.00;;;;;;;5.81;81.54;101896.31;6219048;23;20020;-79
2023/02/13 18:15:33;;;;;;;0.00;0.00;;;;;;;5.75;82.06;101898.81;6195102;23;20032;-79
2023/02/13 18:17:59;;;;;;;0.00;0.00;;;;;;;5.84;81.55;101917.66;6191591;23;20023;-79
2023/02/13 18:20:24;;;;;;;0.10;0.10;;;;;;;5.80;82.63;101894.63;6176595;23;20009;-79
2023/02/13 18:22:50;;;;;;;0.00;0.00;;;;;;;6.05;82.58;101904.03;6179490;23;20064;-79
2023/02/13 18:25:35;;;;;;;0.00;0.00;;;;;;;6.25;81.88;101881.56;6202182;23;20499;-80
2023/02/13 18:28:01;;;;;;;0.00;0.00;;;;;;;6.63;81.24;101905.59;6196838;23;20092;-79
2023/02/13 18:30:26;;;;;;;0.00;0.00;;;;;;;6.88;80.41;101907.72;6195264;23;20009;-81
2023/02/13 18:32:55;;;;;;;0.10;0.10;;;;;;;6.87;79.74;101873.44;6199044;23;20012;-81
2023/02/13 18:35:46;;;;;;;0.00;0.00;;;;;;;7.30;80.16;101919.31;6195172;23;19989;-80
2023/02/13 18:38:11;;;;;;;0.00;0.00;;;;;;;7.40;80.35;101927.91;6197819;23;19996;-81
2023/02/13 18:40:49;;;;;;;;;;;;;;;;;;;;;
2023/02/13 18:43:15;;;;;;;0.00;0.00;;;;;;;7.29;79.63;101915.78;6201103;23;20326;-80
2023/02/13 18:45:44;;;;;;;0.00;0.00;;;;;;;7.21;80.70;101913.25;6199155;23;20012;-82
2023/02/13 18:48:29;;;;;;;0.00;0.00;;;;;;;7.11;81.04;101908.22;6173591;23;19988;-80
2023/02/13 18:50:59;;;;;;;0.00;0.00;;;;;;;7.09;81.26;101899.41;6198738;23;19996;-80
2023/02/13 18:53:24;;;;;;;0.10;0.10;;;;;;;7.06;81.60;101901.72;6199502;23;20005;-80
2023/02/13 18:56:23;;;;;;;0.10;0.10;;;;;;;6.99;81.61;101894.41;6196438;23;19995;-79
2023/02/13 18:58:51;;;;;;;0.00;0.00;;;;;;;6.96;81.20;101899.41;6191132;23;20050;-82
2023/02/13 19:01:19;;;;;;;0.00;0.00;;;;;;;6.67;82.60;101873.38;6193965;23;20005;-78
2023/02/13 19:03:46;;;;;;;0.00;0.00;;;;;;;6.78;83.04;101891.81;6193658;23;20440;-78
2023/02/13 19:06:24;;;;;;;0.00;0.00;;;;;;;6.72;83.31;101903.53;6191622;23;20012;-79
2023/02/13 19:09:10;;;;;;;0.00;0.00;;;;;;;6.64;83.36;101891.78;6193176;23;20039;-79
2023/02/13 19:11:39;;;;;;;0.00;0.00;;;;;;;6.71;83.41;101897.22;6186754;23;20117;-78
2023/02/13 19:14:15;;;;;;;0.00;0.00;;;;;;;6.64;83.67;101907.25;6160053;23;20088;-78
2023/02/13 19:16:43;;;;;;;0.00;0.00;;;;;;;6.53;83.69;101899.69;6187599;23;20108;-78
2023/02/13 19:19:09;;;;;;;0.00;0.00;;;;;;;6.54;84.36;101895.91;6187391;23;20001;-79
2023/02/13 19:21:37;;;;;;;0.00;0.00;;;;;;;6.61;84.55;101907.66;6186361;23;20005;-80
2023/02/13 19:24:07;;;;;;;0.00;0.00;;;;;;;6.40;84.32;101879.56;6163508;23;19997;-77
2023/02/13 19:26:33;;;;;;;0.00;0.00;;;;;;;6.38;85.30;101880.78;6185909;23;20016;-79
2023/02/13 19:29:01;;;;;;;0.00;0.00;;;;;;;6.45;86.03;101909.69;6192791;23;20001;-79
2023/02/13 19:31:29;;;;;;;0.00;0.00;;;;;;;6.37;86.58;101901.72;6186790;23;20025;-79
2023/02/13 19:33:55;;;;;;;0.00;0.00;;;;;;;6.35;86.24;101894.78;6189421;23;20036;-78
2023/02/13 19:36:27;;;;;;;0.00;0.00;;;;;;;6.35;86.40;101898.38;6189740;23;20001;-80
2023/02/13 19:39:02;;;;;;;0.00;0.00;;;;;;;6.25;87.74;101887.84;6192782;23;20120;-79
2023/02/13 19:41:28;;;;;;;0.00;0.00;;;;;;;6.20;87.34;101884.06;6185258;23;20001;-80
2023/02/13 19:43:54;;;;;;;0.00;0.00;;;;;;;6.18;87.61;101889.69;6189340;23;20743;-81
2023/02/13 19:46:27;;;;;;;0.00;0.00;;;;;;;6.09;87.88;101894.47;6188537;23;20013;-81
2023/02/13 19:49:09;;;;;;;;;;;;;;;;;;;;;
2023/02/13 19:51:44;;;;;;;0.00;0.00;;;;;;;6.15;87.52;101875.66;6193345;23;20033;-80
2023/02/13 19:54:13;;;;;;;0.10;0.10;;;;;;;6.12;88.43;101879.66;6186603;23;20001;-78
2023/02/13 19:56:39;;;;;;;0.00;0.00;;;;;;;6.22;87.97;101917.28;6189083;23;19997;-78
2023/02/13 19:59:12;;;;;;;0.00;0.00;;;;;;;6.14;88.61;101901.16;6162850;23;20019;-79
2023/02/13 20:01:40;;;;;;;0.00;0.00;;;;;;;6.04;88.87;101896.91;6187905;23;20080;-81
2023/02/13 20:04:05;;;;;;;0.00;0.00;;;;;;;6.07;88.92;101901.94;6185528;23;20080;-80
2023/02/13 20:06:34;;;;;;;0.00;0.00;;;;;;;6.16;88.89;101909.94;6139706;23;20003;-77
2023/02/13 20:09:19;;;;;;;;;;;;;;;;;;;;;
2023/02/13 20:11:45;;;;;;;0.10;0.10;;;;;;;6.27;88.72;101906.66;6218254;23;20040;-78
2023/02/13 20:14:13;;;;;;;0.00;0.00;;;;;;;6.24;88.09;101890.78;6165333;23;20019;-80
2023/02/13 20:16:39;;;;;;;0.05;0.05;;;;;;;6.40;88.30;101914.88;6194920;23;20012;-79
2023/02/13 20:19:08;;;;;;;0.00;0.00;;;;;;;6.43;88.43;101917.19;6168278;23;20004;-78
2023/02/13 20:21:34;;;;;;;0.00;0.00;;;;;;;6.41;88.64;101919.28;6169153;23;20009;-79
2023/02/13 20:24:01;;;;;;;0.00;0.00;;;;;;;6.42;87.96;101903.81;6191086;23;19993;-77
2023/02/13 20:26:27;;;;;;;0.00;0.00;;;;;;;6.44;88.65;101908.00;6192553;23;19992;-79
2023/02/13 20:28:58;;;;;;;0.00;0.00;;;;;;;6.49;87.32;101914.72;6191665;23;20011;-78
2023/02/13 20:31:44;;;;;;;0.10;0.10;;;;;;;6.63;87.65;101921.91;6164423;23;20016;-79
2023/02/13 20:34:09;;;;;;;0.10;0.10;;;;;;;6.54;87.08;101910.38;6189314;23;20867;-78
2023/02/13 20:36:47;;;;;;;;;;;;;;;;;;;;;
2023/02/13 20:39:13;;;;;;;0.00;0.00;;;;;;;6.47;87.49;101885.03;6218565;23;20024;-78
2023/02/13 20:41:49;;;;;;;;;;;;;;;;;;;;;
2023/02/13 20:44:35;;;;;;;;;;;;;;;;;;;;;
2023/02/13 20:47:01;;;;;;;0.00;0.00;;;;;;;6.26;88.15;101888.69;6220209;23;20032;-78
2023/02/13 20:49:39;;;;;;;;;;;;;;;;;;;;;
2023/02/13 20:58:43;;;;;;;0.00;0.00;;;;;;;6.17;90.44;101895.34;6175281;23;20051;-78
2023/02/13 21:04:58;;;;;;;0.00;0.00;;;;;;;6.15;89.72;101895.53;6140948;23;20045;-80
2023/02/13 21:08:29;;;;;;;0.00;0.00;;;;;;;6.04;90.88;101885.22;6179539;23;20001;-79
2023/02/13 21:11:27;;;;;;;;;;;;;;;;;;;;;
2023/02/13 21:14:42;;;;;;;;;;;;;;;;;;;;;
2023/02/13 21:20:24;;;;;;;;;;;;;;;;;;;;;
2023/02/13 21:23:34;;;;;;;;;;;;;;;;;;;;;
2023/02/13 21:29:43;;;;;;;;;;;;;;;;;;;;;
2023/02/13 21:33:03;;;;;;;;;;;;;;;;;;;;;
2023/02/13 21:46:13;;;;;;;0.10;0.10;;;;;;;6.54;90.60;101899.50;5958555;24;20013;-79
2023/02/13 21:49:58;;;;;;;0.10;0.10;;;;;;;6.60;90.59;101901.38;5957217;24;20016;-78
2023/02/13 21:52:23;;;;;;;0.10;0.10;;;;;;;6.61;90.87;101891.34;5945802;23;20084;-78
2023/02/13 21:55:00;;;;;;;0.00;0.00;;;;;;;6.45;90.61;101860.78;5957809;24;20008;-79
2023/02/13 21:57:29;;;;;;;0.10;0.10;;;;;;;6.63;91.01;101872.97;6057273;23;20011;-79
2023/02/13 22:00:02;;;;;;;0.00;0.00;;;;;;;6.84;90.97;101890.19;6143274;23;20043;-79
2023/02/13 22:02:28;;;;;;;0.10;0.10;;;;;;;6.63;90.40;101849.34;6192978;23;20012;-77
2023/02/13 22:04:56;;;;;;;0.10;0.10;;;;;;;6.84;89.94;101869.25;6172077;23;20828;-77
2023/02/13 22:07:24;;;;;;;0.00;0.00;;;;;;;6.90;89.78;101889.34;6192832;23;20083;-77
2023/02/13 22:09:50;;;;;;;0.00;0.00;;;;;;;6.68;90.42;101892.22;6170766;23;20012;-78
2023/02/13 22:12:21;;;;;;;0.00;0.00;;;;;;;6.62;89.98;101887.59;6167775;23;20016;-76
2023/02/13 22:14:47;;;;;;;0.00;0.00;;;;;;;6.69;89.90;101891.19;6192441;23;20008;-76
2023/02/13 22:17:21;;;;;;;0.00;0.00;;;;;;;6.54;90.14;101864.16;6170420;23;20003;-78
2023/02/13 22:19:49;;;;;;;0.00;0.00;;;;;;;6.58;90.63;101875.44;6192361;23;20000;-78
2023/02/13 22:22:17;;;;;;;0.10;0.10;;;;;;;6.54;90.46;101868.72;6168359;23;20027;-77
2023/02/13 22:24:43;;;;;;;0.00;0.00;;;;;;;6.40;90.67;101852.38;6165087;23;20099;-79
2023/02/13 22:27:08;;;;;;;0.00;0.00;;;;;;;6.55;91.07;101881.28;6196137;23;20001;-78